sensor_id;sensor_type;location;lat;lon;timestamp;P1;durP1;ratioP1;P2;durP2;ratioP2
71211;SDS011;58957;37.742;-0.742;2023-10-08T00:02:08;6.97;;;4.53;;
71211;SDS011;58957;37.742;-0.742;2023-10-08T00:04:36;8.10;;;4.35;;
71211;SDS011;58957;37.742;-0.742;2023-10-08T00:07:03;9.43;;;4.35;;
71211;SDS011;58957;37.742;-0.742;2023-10-08T00:09:33;8.60;;;4.53;;
71211;SDS011;58957;37.742;-0.742;2023-10-08T00:12:04;9.57;;;4.70;;
71211;SDS011;58957;37.742;-0.742;2023-10-08T00:14:33;11.63;;;4.70;;
71211;SDS011;58957;37.742;-0.742;2023-10-08T00:17:09;9.25;;;4.60;;
71211;SDS011;58957;37.742;-0.742;2023-10-08T00:19:37;14.93;;;5.22;;
71211;SDS011;58957;37.742;-0.742;2023-10-08T00:22:05;11.77;;;4.60;;
71211;SDS011;58957;37.742;-0.742;2023-10-08T00:24:33;12.23;;;4.55;;
71211;SDS011;58957;37.742;-0.742;2023-10-08T00:27:00;8.73;;;4.82;;
71211;SDS011;58957;37.742;-0.742;2023-10-08T00:29:33;8.25;;;4.90;;
71211;SDS011;58957;37.742;-0.742;2023-10-08T00:32:04;5.43;;;4.28;;
71211;SDS011;58957;37.742;-0.742;2023-10-08T00:34:37;10.45;;;5.15;;
71211;SDS011;58957;37.742;-0.742;2023-10-08T00:37:07;10.43;;;4.85;;
71211;SDS011;58957;37.742;-0.742;2023-10-08T00:39:35;9.48;;;4.53;;
71211;SDS011;58957;37.742;-0.742;2023-10-08T00:42:05;11.23;;;5.05;;
71211;SDS011;58957;37.742;-0.742;2023-10-08T00:44:39;9.85;;;4.90;;
71211;SDS011;58957;37.742;-0.742;2023-10-08T00:47:13;11.02;;;5.07;;
71211;SDS011;58957;37.742;-0.742;2023-10-08T00:49:41;7.45;;;4.50;;
71211;SDS011;58957;37.742;-0.742;2023-10-08T00:52:19;8.93;;;4.10;;
71211;SDS011;58957;37.742;-0.742;2023-10-08T00:54:55;9.50;;;5.00;;
71211;SDS011;58957;37.742;-0.742;2023-10-08T00:57:40;8.80;;;4.32;;
71211;SDS011;58957;37.742;-0.742;2023-10-08T01:00:09;12.63;;;5.13;;
71211;SDS011;58957;37.742;-0.742;2023-10-08T01:02:46;11.32;;;4.82;;
71211;SDS011;58957;37.742;-0.742;2023-10-08T01:05:20;9.73;;;5.50;;
71211;SDS011;58957;37.742;-0.742;2023-10-08T01:07:57;13.57;;;5.97;;
71211;SDS011;58957;37.742;-0.742;2023-10-08T01:10:31;12.80;;;5.45;;
71211;SDS011;58957;37.742;-0.742;2023-10-08T01:12:59;10.50;;;5.38;;
71211;SDS011;58957;37.742;-0.742;2023-10-08T01:15:33;7.43;;;4.68;;
71211;SDS011;58957;37.742;-0.742;2023-10-08T01:18:03;9.32;;;4.70;;
71211;SDS011;58957;37.742;-0.742;2023-10-08T01:20:40;7.15;;;5.03;;
71211;SDS011;58957;37.742;-0.742;2023-10-08T01:23:19;8.30;;;5.15;;
71211;SDS011;58957;37.742;-0.742;2023-10-08T01:25:48;11.02;;;5.60;;
71211;SDS011;58957;37.742;-0.742;2023-10-08T01:28:20;12.13;;;6.03;;
71211;SDS011;58957;37.742;-0.742;2023-10-08T01:30:54;9.43;;;5.75;;
71211;SDS011;58957;37.742;-0.742;2023-10-08T01:33:25;12.60;;;6.10;;
71211;SDS011;58957;37.742;-0.742;2023-10-08T01:35:53;11.70;;;6.15;;
71211;SDS011;58957;37.742;-0.742;2023-10-08T01:38:28;12.38;;;5.95;;
71211;SDS011;58957;37.742;-0.742;2023-10-08T01:40:57;14.95;;;6.20;;
71211;SDS011;58957;37.742;-0.742;2023-10-08T01:43:31;8.65;;;5.93;;
71211;SDS011;58957;37.742;-0.742;2023-10-08T01:46:02;9.38;;;5.55;;
71211;SDS011;58957;37.742;-0.742;2023-10-08T01:48:29;10.82;;;5.80;;
71211;SDS011;58957;37.742;-0.742;2023-10-08T01:51:02;9.93;;;5.75;;
71211;SDS011;58957;37.742;-0.742;2023-10-08T01:53:38;10.82;;;5.88;;
71211;SDS011;58957;37.742;-0.742;2023-10-08T01:56:06;11.35;;;5.60;;
71211;SDS011;58957;37.742;-0.742;2023-10-08T01:58:36;10.63;;;5.43;;
71211;SDS011;58957;37.742;-0.742;2023-10-08T02:01:03;13.48;;;5.32;;
71211;SDS011;58957;37.742;-0.742;2023-10-08T02:03:37;7.95;;;5.07;;
71211;SDS011;58957;37.742;-0.742;2023-10-08T02:06:04;14.65;;;5.80;;
71211;SDS011;58957;37.742;-0.742;2023-10-08T02:08:34;9.07;;;5.10;;
71211;SDS011;58957;37.742;-0.742;2023-10-08T02:11:03;14.07;;;6.30;;
71211;SDS011;58957;37.742;-0.742;2023-10-08T02:13:30;12.73;;;6.10;;
71211;SDS011;58957;37.742;-0.742;2023-10-08T02:16:00;9.75;;;5.68;;
71211;SDS011;58957;37.742;-0.742;2023-10-08T02:18:27;13.25;;;5.65;;
71211;SDS011;58957;37.742;-0.742;2023-10-08T02:20:56;19.35;;;6.07;;
71211;SDS011;58957;37.742;-0.742;2023-10-08T02:23:24;10.00;;;5.60;;
71211;SDS011;58957;37.742;-0.742;2023-10-08T02:25:53;11.50;;;5.72;;
71211;SDS011;58957;37.742;-0.742;2023-10-08T02:28:22;14.70;;;6.55;;
71211;SDS011;58957;37.742;-0.742;2023-10-08T02:30:51;11.82;;;5.82;;
71211;SDS011;58957;37.742;-0.742;2023-10-08T02:33:18;17.73;;;6.53;;
71211;SDS011;58957;37.742;-0.742;2023-10-08T02:35:46;12.13;;;6.50;;
71211;SDS011;58957;37.742;-0.742;2023-10-08T02:38:15;14.57;;;5.57;;
71211;SDS011;58957;37.742;-0.742;2023-10-08T02:40:43;10.50;;;6.22;;
71211;SDS011;58957;37.742;-0.742;2023-10-08T02:43:11;10.50;;;5.90;;
71211;SDS011;58957;37.742;-0.742;2023-10-08T02:45:42;15.40;;;6.65;;
71211;SDS011;58957;37.742;-0.742;2023-10-08T02:48:12;15.88;;;5.97;;
71211;SDS011;58957;37.742;-0.742;2023-10-08T02:50:40;21.65;;;6.05;;
71211;SDS011;58957;37.742;-0.742;2023-10-08T02:53:09;13.20;;;6.57;;
71211;SDS011;58957;37.742;-0.742;2023-10-08T02:55:37;12.25;;;6.45;;
71211;SDS011;58957;37.742;-0.742;2023-10-08T02:58:09;10.80;;;5.75;;
71211;SDS011;58957;37.742;-0.742;2023-10-08T03:00:39;11.90;;;5.78;;
71211;SDS011;58957;37.742;-0.742;2023-10-08T03:03:08;12.57;;;6.20;;
71211;SDS011;58957;37.742;-0.742;2023-10-08T03:05:41;17.65;;;5.95;;
71211;SDS011;58957;37.742;-0.742;2023-10-08T03:08:09;16.05;;;6.35;;
71211;SDS011;58957;37.742;-0.742;2023-10-08T03:10:37;8.35;;;5.90;;
71211;SDS011;58957;37.742;-0.742;2023-10-08T03:13:05;10.20;;;5.90;;
71211;SDS011;58957;37.742;-0.742;2023-10-08T03:15:35;11.45;;;6.63;;
71211;SDS011;58957;37.742;-0.742;2023-10-08T03:18:06;15.65;;;6.28;;
71211;SDS011;58957;37.742;-0.742;2023-10-08T03:20:41;14.32;;;6.20;;
71211;SDS011;58957;37.742;-0.742;2023-10-08T03:23:11;9.82;;;5.40;;
71211;SDS011;58957;37.742;-0.742;2023-10-08T03:25:47;12.68;;;5.95;;
71211;SDS011;58957;37.742;-0.742;2023-10-08T03:28:22;9.45;;;5.85;;
71211;SDS011;58957;37.742;-0.742;2023-10-08T03:30:53;13.27;;;6.22;;
71211;SDS011;58957;37.742;-0.742;2023-10-08T03:33:29;11.35;;;5.85;;
71211;SDS011;58957;37.742;-0.742;2023-10-08T03:36:01;13.43;;;6.18;;
71211;SDS011;58957;37.742;-0.742;2023-10-08T03:38:36;10.43;;;6.57;;
71211;SDS011;58957;37.742;-0.742;2023-10-08T03:41:15;10.52;;;5.82;;
71211;SDS011;58957;37.742;-0.742;2023-10-08T03:43:43;10.35;;;6.32;;
71211;SDS011;58957;37.742;-0.742;2023-10-08T03:46:19;10.05;;;6.05;;
71211;SDS011;58957;37.742;-0.742;2023-10-08T03:48:49;13.27;;;6.00;;
71211;SDS011;58957;37.742;-0.742;2023-10-08T03:51:19;11.13;;;5.82;;
71211;SDS011;58957;37.742;-0.742;2023-10-08T03:53:47;16.45;;;6.55;;
71211;SDS011;58957;37.742;-0.742;2023-10-08T03:56:25;12.10;;;6.32;;
71211;SDS011;58957;37.742;-0.742;2023-10-08T03:58:55;12.10;;;6.80;;
71211;SDS011;58957;37.742;-0.742;2023-10-08T04:01:25;17.27;;;6.85;;
71211;SDS011;58957;37.742;-0.742;2023-10-08T04:03:57;13.20;;;6.15;;
71211;SDS011;58957;37.742;-0.742;2023-10-08T04:06:26;12.98;;;6.70;;
71211;SDS011;58957;37.742;-0.742;2023-10-08T04:09:03;14.10;;;7.25;;
71211;SDS011;58957;37.742;-0.742;2023-10-08T04:11:49;14.23;;;6.90;;
71211;SDS011;58957;37.742;-0.742;2023-10-08T04:14:21;14.85;;;6.63;;
71211;SDS011;58957;37.742;-0.742;2023-10-08T04:16:49;13.20;;;6.38;;
71211;SDS011;58957;37.742;-0.742;2023-10-08T04:19:18;11.77;;;6.32;;
71211;SDS011;58957;37.742;-0.742;2023-10-08T04:21:53;13.52;;;6.20;;
71211;SDS011;58957;37.742;-0.742;2023-10-08T04:24:21;10.65;;;5.85;;
71211;SDS011;58957;37.742;-0.742;2023-10-08T04:26:59;8.27;;;6.05;;
71211;SDS011;58957;37.742;-0.742;2023-10-08T04:29:28;10.70;;;5.97;;
71211;SDS011;58957;37.742;-0.742;2023-10-08T04:31:58;12.18;;;6.43;;
71211;SDS011;58957;37.742;-0.742;2023-10-08T04:34:33;14.50;;;6.10;;
71211;SDS011;58957;37.742;-0.742;2023-10-08T04:37:02;14.07;;;6.13;;
71211;SDS011;58957;37.742;-0.742;2023-10-08T04:39:37;11.05;;;6.45;;
71211;SDS011;58957;37.742;-0.742;2023-10-08T04:42:06;15.20;;;6.05;;
71211;SDS011;58957;37.742;-0.742;2023-10-08T04:44:36;13.25;;;5.97;;
71211;SDS011;58957;37.742;-0.742;2023-10-08T04:47:06;12.93;;;6.53;;
71211;SDS011;58957;37.742;-0.742;2023-10-08T04:49:34;10.88;;;5.90;;
71211;SDS011;58957;37.742;-0.742;2023-10-08T04:52:11;15.32;;;6.85;;
71211;SDS011;58957;37.742;-0.742;2023-10-08T04:54:40;12.77;;;7.55;;
71211;SDS011;58957;37.742;-0.742;2023-10-08T04:57:16;15.35;;;6.72;;
71211;SDS011;58957;37.742;-0.742;2023-10-08T04:59:47;19.17;;;7.22;;
71211;SDS011;58957;37.742;-0.742;2023-10-08T05:02:15;10.05;;;6.72;;
71211;SDS011;58957;37.742;-0.742;2023-10-08T05:04:52;11.85;;;6.78;;
71211;SDS011;58957;37.742;-0.742;2023-10-08T05:07:44;12.65;;;7.05;;
71211;SDS011;58957;37.742;-0.742;2023-10-08T05:10:36;10.75;;;7.22;;
71211;SDS011;58957;37.742;-0.742;2023-10-08T05:13:21;10.45;;;7.00;;
71211;SDS011;58957;37.742;-0.742;2023-10-08T05:15:56;14.77;;;6.70;;
71211;SDS011;58957;37.742;-0.742;2023-10-08T05:18:44;12.15;;;7.25;;
71211;SDS011;58957;37.742;-0.742;2023-10-08T05:21:39;15.15;;;7.53;;
71211;SDS011;58957;37.742;-0.742;2023-10-08T05:24:19;11.43;;;7.60;;
71211;SDS011;58957;37.742;-0.742;2023-10-08T05:26:53;13.35;;;7.47;;
71211;SDS011;58957;37.742;-0.742;2023-10-08T05:29:44;17.77;;;7.30;;
71211;SDS011;58957;37.742;-0.742;2023-10-08T05:32:38;11.77;;;7.63;;
71211;SDS011;58957;37.742;-0.742;2023-10-08T05:35:29;10.82;;;6.82;;
71211;SDS011;58957;37.742;-0.742;2023-10-08T05:38:14;9.98;;;6.88;;
71211;SDS011;58957;37.742;-0.742;2023-10-08T05:40:43;13.40;;;7.20;;
71211;SDS011;58957;37.742;-0.742;2023-10-08T05:43:30;11.02;;;7.30;;
71211;SDS011;58957;37.742;-0.742;2023-10-08T05:46:14;11.95;;;7.07;;
71211;SDS011;58957;37.742;-0.742;2023-10-08T05:49:05;11.65;;;7.18;;
71211;SDS011;58957;37.742;-0.742;2023-10-08T05:51:51;11.73;;;7.68;;
71211;SDS011;58957;37.742;-0.742;2023-10-08T05:54:47;14.20;;;6.80;;
71211;SDS011;58957;37.742;-0.742;2023-10-08T05:57:42;13.77;;;7.40;;
71211;SDS011;58957;37.742;-0.742;2023-10-08T06:00:18;16.27;;;7.70;;
71211;SDS011;58957;37.742;-0.742;2023-10-08T06:03:14;11.82;;;6.88;;
71211;SDS011;58957;37.742;-0.742;2023-10-08T06:06:00;18.65;;;7.55;;
71211;SDS011;58957;37.742;-0.742;2023-10-08T06:08:46;13.10;;;7.57;;
71211;SDS011;58957;37.742;-0.742;2023-10-08T06:11:47;15.77;;;7.82;;
71211;SDS011;58957;37.742;-0.742;2023-10-08T06:14:33;17.98;;;8.35;;
71211;SDS011;58957;37.742;-0.742;2023-10-08T06:17:33;14.27;;;7.55;;
71211;SDS011;58957;37.742;-0.742;2023-10-08T06:20:10;12.07;;;7.88;;
71211;SDS011;58957;37.742;-0.742;2023-10-08T06:22:42;15.07;;;8.45;;
71211;SDS011;58957;37.742;-0.742;2023-10-08T06:25:09;10.38;;;7.40;;
71211;SDS011;58957;37.742;-0.742;2023-10-08T06:27:49;13.68;;;8.07;;
71211;SDS011;58957;37.742;-0.742;2023-10-08T06:30:21;13.60;;;8.45;;
71211;SDS011;58957;37.742;-0.742;2023-10-08T06:32:54;10.82;;;8.00;;
71211;SDS011;58957;37.742;-0.742;2023-10-08T06:35:21;14.95;;;7.93;;
71211;SDS011;58957;37.742;-0.742;2023-10-08T06:37:52;12.93;;;9.00;;
71211;SDS011;58957;37.742;-0.742;2023-10-08T06:40:25;13.50;;;8.23;;
71211;SDS011;58957;37.742;-0.742;2023-10-08T06:43:09;17.27;;;8.25;;
71211;SDS011;58957;37.742;-0.742;2023-10-08T06:45:49;15.23;;;8.77;;
71211;SDS011;58957;37.742;-0.742;2023-10-08T06:48:19;15.82;;;8.60;;
71211;SDS011;58957;37.742;-0.742;2023-10-08T06:50:47;11.68;;;7.72;;
71211;SDS011;58957;37.742;-0.742;2023-10-08T06:53:14;17.88;;;8.75;;
71211;SDS011;58957;37.742;-0.742;2023-10-08T06:55:43;13.75;;;8.13;;
71211;SDS011;58957;37.742;-0.742;2023-10-08T06:58:14;15.25;;;8.23;;
71211;SDS011;58957;37.742;-0.742;2023-10-08T07:00:43;15.43;;;8.18;;
71211;SDS011;58957;37.742;-0.742;2023-10-08T07:03:14;15.13;;;7.30;;
71211;SDS011;58957;37.742;-0.742;2023-10-08T07:05:43;14.88;;;7.63;;
71211;SDS011;58957;37.742;-0.742;2023-10-08T07:08:19;15.75;;;8.05;;
71211;SDS011;58957;37.742;-0.742;2023-10-08T07:10:48;13.68;;;7.28;;
71211;SDS011;58957;37.742;-0.742;2023-10-08T07:13:17;10.75;;;7.25;;
71211;SDS011;58957;37.742;-0.742;2023-10-08T07:15:47;15.75;;;7.60;;
71211;SDS011;58957;37.742;-0.742;2023-10-08T07:18:15;14.02;;;8.00;;
71211;SDS011;58957;37.742;-0.742;2023-10-08T07:20:50;26.67;;;8.48;;
71211;SDS011;58957;37.742;-0.742;2023-10-08T07:23:19;15.25;;;7.32;;
71211;SDS011;58957;37.742;-0.742;2023-10-08T07:25:53;11.70;;;7.55;;
71211;SDS011;58957;37.742;-0.742;2023-10-08T07:28:25;16.02;;;7.97;;
71211;SDS011;58957;37.742;-0.742;2023-10-08T07:30:54;13.77;;;7.13;;
71211;SDS011;58957;37.742;-0.742;2023-10-08T07:33:23;14.80;;;7.72;;
71211;SDS011;58957;37.742;-0.742;2023-10-08T07:36:01;15.38;;;8.20;;
71211;SDS011;58957;37.742;-0.742;2023-10-08T07:38:37;14.95;;;8.10;;
71211;SDS011;58957;37.742;-0.742;2023-10-08T07:41:07;16.73;;;7.57;;
71211;SDS011;58957;37.742;-0.742;2023-10-08T07:43:39;16.08;;;7.97;;
71211;SDS011;58957;37.742;-0.742;2023-10-08T07:46:07;16.45;;;8.13;;
71211;SDS011;58957;37.742;-0.742;2023-10-08T07:48:34;17.13;;;8.40;;
71211;SDS011;58957;37.742;-0.742;2023-10-08T07:51:07;18.15;;;9.55;;
71211;SDS011;58957;37.742;-0.742;2023-10-08T07:53:34;18.02;;;8.68;;
71211;SDS011;58957;37.742;-0.742;2023-10-08T07:56:04;15.38;;;8.32;;
71211;SDS011;58957;37.742;-0.742;2023-10-08T07:58:33;11.85;;;8.35;;
71211;SDS011;58957;37.742;-0.742;2023-10-08T08:01:04;15.93;;;7.95;;
71211;SDS011;58957;37.742;-0.742;2023-10-08T08:03:32;13.90;;;8.27;;
71211;SDS011;58957;37.742;-0.742;2023-10-08T08:06:02;12.63;;;7.65;;
71211;SDS011;58957;37.742;-0.742;2023-10-08T08:08:31;16.52;;;8.73;;
71211;SDS011;58957;37.742;-0.742;2023-10-08T08:10:59;15.95;;;7.97;;
71211;SDS011;58957;37.742;-0.742;2023-10-08T08:13:32;12.68;;;7.40;;
71211;SDS011;58957;37.742;-0.742;2023-10-08T08:16:00;10.90;;;7.40;;
71211;SDS011;58957;37.742;-0.742;2023-10-08T08:18:37;12.40;;;6.93;;
71211;SDS011;58957;37.742;-0.742;2023-10-08T08:21:08;12.60;;;6.95;;
71211;SDS011;58957;37.742;-0.742;2023-10-08T08:23:39;12.80;;;7.25;;
71211;SDS011;58957;37.742;-0.742;2023-10-08T08:26:13;12.05;;;6.65;;
71211;SDS011;58957;37.742;-0.742;2023-10-08T08:28:52;12.10;;;7.07;;
71211;SDS011;58957;37.742;-0.742;2023-10-08T08:31:22;11.43;;;7.03;;
71211;SDS011;58957;37.742;-0.742;2023-10-08T08:33:52;10.05;;;6.60;;
71211;SDS011;58957;37.742;-0.742;2023-10-08T08:36:22;11.98;;;7.22;;
71211;SDS011;58957;37.742;-0.742;2023-10-08T08:38:50;12.23;;;7.28;;
71211;SDS011;58957;37.742;-0.742;2023-10-08T08:41:18;11.45;;;7.07;;
71211;SDS011;58957;37.742;-0.742;2023-10-08T08:43:47;14.48;;;6.25;;
71211;SDS011;58957;37.742;-0.742;2023-10-08T08:46:22;16.67;;;6.97;;
71211;SDS011;58957;37.742;-0.742;2023-10-08T08:48:55;12.05;;;6.38;;
71211;SDS011;58957;37.742;-0.742;2023-10-08T08:51:27;11.93;;;6.22;;
71211;SDS011;58957;37.742;-0.742;2023-10-08T08:53:56;14.32;;;6.38;;
71211;SDS011;58957;37.742;-0.742;2023-10-08T08:56:25;11.43;;;6.13;;
71211;SDS011;58957;37.742;-0.742;2023-10-08T08:58:54;11.93;;;6.00;;
71211;SDS011;58957;37.742;-0.742;2023-10-08T09:01:24;12.43;;;6.13;;
71211;SDS011;58957;37.742;-0.742;2023-10-08T09:03:52;9.35;;;5.88;;
71211;SDS011;58957;37.742;-0.742;2023-10-08T09:06:30;8.98;;;6.18;;
71211;SDS011;58957;37.742;-0.742;2023-10-08T09:08:59;8.52;;;6.07;;
71211;SDS011;58957;37.742;-0.742;2023-10-08T09:11:47;11.23;;;5.70;;
71211;SDS011;58957;37.742;-0.742;2023-10-08T09:14:17;15.98;;;6.38;;
71211;SDS011;58957;37.742;-0.742;2023-10-08T09:16:46;11.55;;;5.95;;
71211;SDS011;58957;37.742;-0.742;2023-10-08T09:19:15;10.77;;;5.78;;
71211;SDS011;58957;37.742;-0.742;2023-10-08T09:21:43;9.88;;;5.78;;
71211;SDS011;58957;37.742;-0.742;2023-10-08T09:24:28;12.15;;;6.25;;
71211;SDS011;58957;37.742;-0.742;2023-10-08T09:26:56;8.93;;;5.70;;
71211;SDS011;58957;37.742;-0.742;2023-10-08T09:29:23;7.65;;;5.78;;
71211;SDS011;58957;37.742;-0.742;2023-10-08T09:31:52;12.52;;;6.05;;
71211;SDS011;58957;37.742;-0.742;2023-10-08T09:34:23;12.65;;;5.50;;
71211;SDS011;58957;37.742;-0.742;2023-10-08T09:36:54;10.13;;;5.57;;
71211;SDS011;58957;37.742;-0.742;2023-10-08T09:39:25;9.50;;;5.43;;
71211;SDS011;58957;37.742;-0.742;2023-10-08T09:41:54;8.50;;;5.45;;
71211;SDS011;58957;37.742;-0.742;2023-10-08T09:44:22;6.85;;;4.78;;
71211;SDS011;58957;37.742;-0.742;2023-10-08T09:46:52;10.02;;;5.18;;
71211;SDS011;58957;37.742;-0.742;2023-10-08T09:49:24;8.18;;;4.88;;
71211;SDS011;58957;37.742;-0.742;2023-10-08T09:51:59;13.02;;;5.68;;
71211;SDS011;58957;37.742;-0.742;2023-10-08T09:54:31;13.82;;;5.28;;
71211;SDS011;58957;37.742;-0.742;2023-10-08T09:57:05;11.52;;;5.43;;
71211;SDS011;58957;37.742;-0.742;2023-10-08T09:59:33;9.73;;;5.72;;
71211;SDS011;58957;37.742;-0.742;2023-10-08T10:02:03;12.07;;;5.70;;
71211;SDS011;58957;37.742;-0.742;2023-10-08T10:04:39;11.13;;;6.07;;
71211;SDS011;58957;37.742;-0.742;2023-10-08T10:07:10;8.75;;;5.80;;
71211;SDS011;58957;37.742;-0.742;2023-10-08T10:09:38;9.38;;;4.95;;
71211;SDS011;58957;37.742;-0.742;2023-10-08T10:12:10;8.88;;;5.25;;
71211;SDS011;58957;37.742;-0.742;2023-10-08T10:14:42;9.52;;;5.13;;
71211;SDS011;58957;37.742;-0.742;2023-10-08T10:17:14;9.63;;;5.93;;
71211;SDS011;58957;37.742;-0.742;2023-10-08T10:19:50;9.95;;;5.15;;
71211;SDS011;58957;37.742;-0.742;2023-10-08T10:22:27;11.60;;;5.70;;
71211;SDS011;58957;37.742;-0.742;2023-10-08T10:24:56;10.88;;;5.30;;
71211;SDS011;58957;37.742;-0.742;2023-10-08T10:27:25;10.85;;;5.38;;
71211;SDS011;58957;37.742;-0.742;2023-10-08T10:29:54;11.82;;;5.72;;
71211;SDS011;58957;37.742;-0.742;2023-10-08T10:32:33;9.05;;;5.10;;
71211;SDS011;58957;37.742;-0.742;2023-10-08T10:35:02;11.10;;;5.70;;
71211;SDS011;58957;37.742;-0.742;2023-10-08T10:37:32;9.45;;;5.63;;
71211;SDS011;58957;37.742;-0.742;2023-10-08T10:40:07;9.43;;;5.10;;
71211;SDS011;58957;37.742;-0.742;2023-10-08T10:42:37;9.00;;;4.80;;
71211;SDS011;58957;37.742;-0.742;2023-10-08T10:45:12;8.98;;;5.10;;
71211;SDS011;58957;37.742;-0.742;2023-10-08T10:48:00;9.93;;;5.18;;
71211;SDS011;58957;37.742;-0.742;2023-10-08T10:50:39;8.10;;;5.53;;
71211;SDS011;58957;37.742;-0.742;2023-10-08T10:53:14;10.32;;;4.88;;
71211;SDS011;58957;37.742;-0.742;2023-10-08T10:55:44;10.23;;;5.53;;
71211;SDS011;58957;37.742;-0.742;2023-10-08T10:58:24;6.47;;;4.93;;
71211;SDS011;58957;37.742;-0.742;2023-10-08T11:00:53;6.90;;;4.95;;
71211;SDS011;58957;37.742;-0.742;2023-10-08T11:03:23;9.45;;;5.22;;
71211;SDS011;58957;37.742;-0.742;2023-10-08T11:05:55;9.82;;;5.35;;
71211;SDS011;58957;37.742;-0.742;2023-10-08T11:08:24;6.95;;;5.22;;
71211;SDS011;58957;37.742;-0.742;2023-10-08T11:10:59;19.45;;;6.32;;
71211;SDS011;58957;37.742;-0.742;2023-10-08T11:13:32;7.75;;;4.85;;
71211;SDS011;58957;37.742;-0.742;2023-10-08T11:16:04;7.60;;;5.40;;
71211;SDS011;58957;37.742;-0.742;2023-10-08T11:18:32;13.85;;;5.38;;
71211;SDS011;58957;37.742;-0.742;2023-10-08T11:21:08;7.47;;;4.63;;
71211;SDS011;58957;37.742;-0.742;2023-10-08T11:23:49;8.45;;;5.20;;
71211;SDS011;58957;37.742;-0.742;2023-10-08T11:26:24;9.15;;;5.22;;
71211;SDS011;58957;37.742;-0.742;2023-10-08T11:29:04;8.55;;;5.32;;
71211;SDS011;58957;37.742;-0.742;2023-10-08T11:31:40;8.57;;;5.35;;
71211;SDS011;58957;37.742;-0.742;2023-10-08T11:34:10;8.88;;;5.38;;
71211;SDS011;58957;37.742;-0.742;2023-10-08T11:36:39;9.50;;;5.43;;
71211;SDS011;58957;37.742;-0.742;2023-10-08T11:39:18;6.70;;;4.93;;
71211;SDS011;58957;37.742;-0.742;2023-10-08T11:41:56;10.10;;;4.82;;
71211;SDS011;58957;37.742;-0.742;2023-10-08T11:44:28;9.60;;;5.07;;
71211;SDS011;58957;37.742;-0.742;2023-10-08T11:46:56;16.50;;;5.65;;
71211;SDS011;58957;37.742;-0.742;2023-10-08T11:49:30;9.38;;;5.25;;
71211;SDS011;58957;37.742;-0.742;2023-10-08T11:52:03;8.63;;;5.40;;
71211;SDS011;58957;37.742;-0.742;2023-10-08T11:54:30;10.00;;;5.13;;
71211;SDS011;58957;37.742;-0.742;2023-10-08T11:56:58;11.70;;;5.32;;
71211;SDS011;58957;37.742;-0.742;2023-10-08T11:59:28;9.93;;;4.85;;
71211;SDS011;58957;37.742;-0.742;2023-10-08T12:01:57;11.95;;;6.13;;
71211;SDS011;58957;37.742;-0.742;2023-10-08T12:04:24;7.20;;;4.78;;
71211;SDS011;58957;37.742;-0.742;2023-10-08T12:06:54;10.85;;;5.25;;
71211;SDS011;58957;37.742;-0.742;2023-10-08T12:09:23;9.73;;;4.78;;
71211;SDS011;58957;37.742;-0.742;2023-10-08T12:11:52;11.48;;;5.13;;
71211;SDS011;58957;37.742;-0.742;2023-10-08T12:14:21;10.77;;;5.03;;
71211;SDS011;58957;37.742;-0.742;2023-10-08T12:16:55;12.85;;;5.85;;
71211;SDS011;58957;37.742;-0.742;2023-10-08T12:19:25;8.27;;;4.68;;
71211;SDS011;58957;37.742;-0.742;2023-10-08T12:21:52;6.57;;;4.53;;
71211;SDS011;58957;37.742;-0.742;2023-10-08T12:24:19;6.43;;;4.57;;
71211;SDS011;58957;37.742;-0.742;2023-10-08T12:26:49;7.22;;;4.60;;
71211;SDS011;58957;37.742;-0.742;2023-10-08T12:29:17;7.50;;;4.47;;
71211;SDS011;58957;37.742;-0.742;2023-10-08T12:31:44;9.98;;;4.50;;
71211;SDS011;58957;37.742;-0.742;2023-10-08T12:34:13;7.93;;;4.82;;
71211;SDS011;58957;37.742;-0.742;2023-10-08T12:36:40;9.63;;;3.88;;
71211;SDS011;58957;37.742;-0.742;2023-10-08T12:39:07;6.88;;;4.35;;
71211;SDS011;58957;37.742;-0.742;2023-10-08T12:41:39;9.88;;;5.03;;
71211;SDS011;58957;37.742;-0.742;2023-10-08T12:44:10;11.57;;;4.72;;
71211;SDS011;58957;37.742;-0.742;2023-10-08T12:46:41;9.05;;;4.85;;
71211;SDS011;58957;37.742;-0.742;2023-10-08T12:49:09;8.98;;;5.35;;
71211;SDS011;58957;37.742;-0.742;2023-10-08T12:51:36;6.80;;;4.18;;
71211;SDS011;58957;37.742;-0.742;2023-10-08T12:54:06;6.72;;;4.60;;
71211;SDS011;58957;37.742;-0.742;2023-10-08T12:56:36;7.60;;;4.50;;
71211;SDS011;58957;37.742;-0.742;2023-10-08T12:59:05;5.20;;;4.70;;
71211;SDS011;58957;37.742;-0.742;2023-10-08T13:01:34;6.97;;;4.65;;
71211;SDS011;58957;37.742;-0.742;2023-10-08T13:04:06;7.63;;;4.40;;
71211;SDS011;58957;37.742;-0.742;2023-10-08T13:06:41;8.00;;;4.38;;
71211;SDS011;58957;37.742;-0.742;2023-10-08T13:09:10;6.70;;;4.45;;
71211;SDS011;58957;37.742;-0.742;2023-10-08T13:11:38;9.88;;;4.53;;
71211;SDS011;58957;37.742;-0.742;2023-10-08T13:14:08;10.30;;;4.82;;
71211;SDS011;58957;37.742;-0.742;2023-10-08T13:16:38;6.68;;;4.32;;
71211;SDS011;58957;37.742;-0.742;2023-10-08T13:19:05;9.43;;;4.32;;
71211;SDS011;58957;37.742;-0.742;2023-10-08T13:21:34;9.25;;;4.53;;
71211;SDS011;58957;37.742;-0.742;2023-10-08T13:24:02;6.95;;;4.35;;
71211;SDS011;58957;37.742;-0.742;2023-10-08T13:26:34;10.77;;;4.25;;
71211;SDS011;58957;37.742;-0.742;2023-10-08T13:29:03;7.63;;;4.25;;
71211;SDS011;58957;37.742;-0.742;2023-10-08T13:31:34;7.05;;;4.80;;
71211;SDS011;58957;37.742;-0.742;2023-10-08T13:34:03;10.23;;;4.70;;
71211;SDS011;58957;37.742;-0.742;2023-10-08T13:36:33;7.35;;;4.88;;
71211;SDS011;58957;37.742;-0.742;2023-10-08T13:39:04;8.85;;;4.53;;
71211;SDS011;58957;37.742;-0.742;2023-10-08T13:41:34;6.45;;;4.63;;
71211;SDS011;58957;37.742;-0.742;2023-10-08T13:44:03;11.20;;;5.22;;
71211;SDS011;58957;37.742;-0.742;2023-10-08T13:46:31;6.45;;;4.53;;
71211;SDS011;58957;37.742;-0.742;2023-10-08T13:49:03;8.48;;;5.05;;
71211;SDS011;58957;37.742;-0.742;2023-10-08T13:51:33;8.07;;;5.18;;
71211;SDS011;58957;37.742;-0.742;2023-10-08T13:54:03;8.15;;;5.05;;
71211;SDS011;58957;37.742;-0.742;2023-10-08T13:56:32;11.25;;;6.95;;
71211;SDS011;58957;37.742;-0.742;2023-10-08T13:59:03;22.67;;;12.40;;
71211;SDS011;58957;37.742;-0.742;2023-10-08T14:01:37;23.98;;;14.52;;
71211;SDS011;58957;37.742;-0.742;2023-10-08T14:04:10;14.65;;;8.27;;
71211;SDS011;58957;37.742;-0.742;2023-10-08T14:06:37;11.85;;;7.95;;
71211;SDS011;58957;37.742;-0.742;2023-10-08T14:09:07;21.85;;;13.20;;
71211;SDS011;58957;37.742;-0.742;2023-10-08T14:11:44;17.73;;;10.38;;
71211;SDS011;58957;37.742;-0.742;2023-10-08T14:14:11;13.95;;;10.00;;
71211;SDS011;58957;37.742;-0.742;2023-10-08T14:16:42;46.58;;;26.52;;
71211;SDS011;58957;37.742;-0.742;2023-10-08T14:19:13;22.63;;;12.82;;
71211;SDS011;58957;37.742;-0.742;2023-10-08T14:21:41;11.65;;;6.90;;
71211;SDS011;58957;37.742;-0.742;2023-10-08T14:24:15;16.08;;;7.38;;
71211;SDS011;58957;37.742;-0.742;2023-10-08T14:26:42;15.68;;;9.93;;
71211;SDS011;58957;37.742;-0.742;2023-10-08T14:29:16;13.73;;;8.38;;
71211;SDS011;58957;37.742;-0.742;2023-10-08T14:31:44;11.77;;;6.57;;
71211;SDS011;58957;37.742;-0.742;2023-10-08T14:34:15;14.13;;;6.93;;
71211;SDS011;58957;37.742;-0.742;2023-10-08T14:36:54;19.42;;;12.88;;
71211;SDS011;58957;37.742;-0.742;2023-10-08T14:39:39;17.55;;;9.80;;
71211;SDS011;58957;37.742;-0.742;2023-10-08T14:42:23;12.25;;;8.70;;
71211;SDS011;58957;37.742;-0.742;2023-10-08T14:45:08;14.35;;;6.80;;
71211;SDS011;58957;37.742;-0.742;2023-10-08T14:47:38;9.70;;;5.68;;
71211;SDS011;58957;37.742;-0.742;2023-10-08T14:50:08;8.10;;;6.25;;
71211;SDS011;58957;37.742;-0.742;2023-10-08T14:52:41;9.88;;;5.25;;
71211;SDS011;58957;37.742;-0.742;2023-10-08T14:55:09;12.07;;;7.25;;
71211;SDS011;58957;37.742;-0.742;2023-10-08T14:57:36;8.48;;;4.82;;